createdAt,value
2018-02-09T00:00:02.199Z,100666.88
2018-02-09T00:01:07.907Z,100668.63
2018-02-09T00:02:14.443Z,100665.61
2018-02-09T00:03:20.937Z,100666.94
2018-02-09T00:04:26.620Z,100667.36
2018-02-09T00:05:32.359Z,100663.52
2018-02-09T00:06:38.087Z,100667.84
2018-02-09T00:07:43.798Z,100669.17
2018-02-09T00:08:49.499Z,100670.92
2018-02-09T00:09:55.985Z,100670.91
2018-02-09T00:11:01.728Z,100671.37
2018-02-09T00:12:07.439Z,100668.38
2018-02-09T00:13:13.919Z,100665.79
2018-02-09T00:14:20.392Z,100671.40
2018-02-09T00:15:26.113Z,100668.41
2018-02-09T00:16:32.607Z,100664.99
2018-02-09T00:17:38.328Z,100662.41
2018-02-09T00:18:45.086Z,100667.13
2018-02-09T00:19:50.803Z,100664.57
2018-02-09T00:20:57.313Z,100670.59
2018-02-09T00:22:03.053Z,100668.03
2018-02-09T00:23:08.780Z,100666.73
2018-02-09T00:24:14.487Z,100667.59
2018-02-09T00:25:20.979Z,100663.31
2018-02-09T00:26:26.695Z,100664.59
2018-02-09T00:27:33.227Z,100658.59
2018-02-09T00:28:38.949Z,100655.58
2018-02-09T00:29:44.664Z,100665.45
2018-02-09T00:30:50.366Z,100660.73
2018-02-09T00:31:56.906Z,100659.87
2018-02-09T00:33:02.808Z,100657.75
2018-02-09T00:34:08.534Z,100656.89
2018-02-09T00:35:14.239Z,100659.44
2018-02-09T00:36:19.963Z,100656.86
2018-02-09T00:37:25.906Z,100658.60
2018-02-09T00:38:31.675Z,100655.58
2018-02-09T00:39:38.174Z,100661.61
2018-02-09T00:40:43.879Z,100662.91
2018-02-09T00:41:50.379Z,100661.17
2018-02-09T00:42:56.082Z,100660.77
2018-02-09T00:44:01.824Z,100662.02
2018-02-09T00:45:08.368Z,100659.03
2018-02-09T00:46:14.874Z,100660.73
2018-02-09T00:47:20.592Z,100661.58
2018-02-09T00:48:27.068Z,100656.84
2018-02-09T00:49:32.801Z,100657.25
2018-02-09T00:50:38.515Z,100654.69
2018-02-09T00:51:44.221Z,100654.66
2018-02-09T00:52:49.926Z,100652.48
2018-02-09T00:53:55.636Z,100655.51
2018-02-09T00:55:02.171Z,100655.48
2018-02-09T00:56:07.890Z,100659.33
2018-02-09T00:57:13.633Z,100654.17
2018-02-09T00:58:19.339Z,100655.03
2018-02-09T00:59:25.083Z,100654.17
2018-02-09T01:00:31.650Z,100654.62
2018-02-09T01:01:38.108Z,100653.34
2018-02-09T01:02:43.828Z,100649.47
2018-02-09T01:03:50.311Z,100649.88
2018-02-09T01:04:56.016Z,100647.70
2018-02-09T01:06:02.544Z,100645.98
2018-02-09T01:07:08.286Z,100647.27
2018-02-09T01:08:14.391Z,100644.27
2018-02-09T01:09:20.102Z,100642.98
2018-02-09T01:10:25.828Z,100644.70
2018-02-09T01:11:31.577Z,100644.27
2018-02-09T01:12:37.279Z,100644.72
2018-02-09T01:13:43.005Z,100646.47
2018-02-09T01:14:48.717Z,100641.73
2018-02-09T01:15:55.185Z,100639.12
2018-02-09T01:17:00.927Z,100640.87
2018-02-09T01:18:06.640Z,100637.44
2018-02-09T01:19:13.288Z,100634.00
2018-02-09T01:20:18.989Z,100635.72
2018-02-09T01:21:24.753Z,100630.16
2018-02-09T01:22:30.517Z,100636.60
2018-02-09T01:23:36.400Z,100637.45
2018-02-09T01:24:42.886Z,100634.85
2018-02-09T01:25:48.605Z,100636.59
2018-02-09T01:26:54.314Z,100631.47
2018-02-09T01:28:00.041Z,100629.72
2018-02-09T01:29:05.748Z,100628.91
2018-02-09T01:30:11.458Z,100630.59
2018-02-09T01:31:17.933Z,100628.45
2018-02-09T01:32:23.650Z,100626.73
2018-02-09T01:33:30.147Z,100623.75
2018-02-09T01:34:35.863Z,100624.17
2018-02-09T01:35:41.571Z,100626.33
2018-02-09T01:36:47.288Z,100623.77
2018-02-09T01:37:53.001Z,100621.61
2018-02-09T01:38:58.736Z,100625.05
2018-02-09T01:40:04.486Z,100622.50
2018-02-09T01:41:10.211Z,100624.23
2018-02-09T01:42:15.923Z,100621.66
2018-02-09T01:43:21.720Z,100621.22
2018-02-09T01:44:27.492Z,100618.23
2018-02-09T01:45:33.199Z,100615.66
2018-02-09T01:46:38.923Z,100609.22
2018-02-09T01:47:44.631Z,100612.63
2018-02-09T01:48:51.126Z,100611.78
2018-02-09T01:50:13.742Z,100619.11
2018-02-09T01:51:20.219Z,100618.27
2018-02-09T01:52:25.936Z,100611.40
2018-02-09T01:53:32.421Z,100613.52
2018-02-09T01:54:38.156Z,100611.80
2018-02-09T01:55:43.881Z,100613.97
2018-02-09T01:56:49.711Z,100612.23
2018-02-09T01:57:55.415Z,100611.80
2018-02-09T01:59:01.137Z,100606.66
2018-02-09T02:00:06.523Z,100604.08
2018-02-09T02:01:13.024Z,100603.64
2018-02-09T02:02:18.745Z,100607.52
2018-02-09T02:03:24.447Z,100605.34
2018-02-09T02:04:30.167Z,100604.49
2018-02-09T02:05:35.879Z,100604.89
2018-02-09T02:06:41.616Z,100603.19
2018-02-09T02:07:47.105Z,100604.02
2018-02-09T02:08:53.011Z,100602.31
2018-02-09T02:09:58.728Z,100598.44
2018-02-09T02:11:05.016Z,100600.16
2018-02-09T02:12:10.752Z,100596.70
2018-02-09T02:13:16.460Z,100600.55
2018-02-09T02:14:22.181Z,100603.98
2018-02-09T02:15:29.513Z,100600.58
2018-02-09T02:16:35.234Z,100599.28
2018-02-09T02:17:41.778Z,100596.70
2018-02-09T02:18:47.672Z,100588.13
2018-02-09T02:19:53.379Z,100595.84
2018-02-09T02:20:59.092Z,100589.42
2018-02-09T02:22:05.579Z,100583.84
2018-02-09T02:23:11.330Z,100587.70
2018-02-09T02:24:17.031Z,100585.56
2018-02-09T02:25:23.508Z,100583.86
2018-02-09T02:26:29.218Z,100586.88
2018-02-09T02:27:35.711Z,100583.41
2018-02-09T02:28:41.458Z,100588.16
2018-02-09T02:29:47.168Z,100585.58
2018-02-09T02:30:53.642Z,100585.13
2018-02-09T02:31:59.370Z,100587.72
2018-02-09T02:33:05.511Z,100585.58
2018-02-09T02:34:12.012Z,100581.71
2018-02-09T02:35:17.707Z,100587.27
2018-02-09T02:36:24.184Z,100578.25
2018-02-09T02:37:30.670Z,100577.40
2018-02-09T02:38:36.378Z,100574.39
2018-02-09T02:39:42.875Z,100579.11
2018-02-09T02:40:48.592Z,100580.00
2018-02-09T02:41:55.077Z,100574.84
2018-02-09T02:43:00.788Z,100570.97
2018-02-09T02:44:06.504Z,100569.26
2018-02-09T02:45:12.251Z,100567.54
2018-02-09T02:46:18.738Z,100574.41
2018-02-09T02:47:24.451Z,100576.54
2018-02-09T02:48:30.928Z,100570.10
2018-02-09T02:49:36.465Z,100575.66
2018-02-09T02:50:42.212Z,100577.38
2018-02-09T02:51:47.919Z,100579.55
2018-02-09T02:52:54.392Z,100575.25
2018-02-09T02:54:00.872Z,100569.69
2018-02-09T02:55:06.594Z,100567.52
2018-02-09T02:56:13.099Z,100567.54
2018-02-09T02:57:18.815Z,100565.82
2018-02-09T02:58:24.523Z,100564.55
2018-02-09T02:59:31.011Z,100558.11
2018-02-09T03:00:36.749Z,100559.42
2018-02-09T03:01:42.495Z,100560.28
2018-02-09T03:02:48.212Z,100561.56
2018-02-09T03:03:54.701Z,100565.86
2018-02-09T03:05:00.449Z,100566.72
2018-02-09T03:06:06.006Z,100561.55
2018-02-09T03:07:11.753Z,100567.98
2018-02-09T03:08:17.468Z,100559.39
2018-02-09T03:09:23.192Z,100557.28
2018-02-09T03:10:28.717Z,100558.97
2018-02-09T03:11:34.431Z,100557.66
2018-02-09T03:12:40.939Z,100554.66
2018-02-09T03:13:46.648Z,100553.80
2018-02-09T03:14:53.131Z,100558.52
2018-02-09T03:15:58.690Z,100552.48
2018-02-09T03:17:04.399Z,100554.17
2018-02-09T03:18:10.130Z,100554.18
2018-02-09T03:19:15.855Z,100550.31
2018-02-09T03:20:22.662Z,100549.00
2018-02-09T03:21:28.366Z,100547.28
2018-02-09T03:22:34.844Z,100546.86
2018-02-09T03:23:40.579Z,100537.80
2018-02-09T03:24:46.300Z,100541.67
2018-02-09T03:25:52.800Z,100539.98
2018-02-09T03:26:58.508Z,100535.28
2018-02-09T03:28:04.981Z,100531.47
2018-02-09T03:29:10.728Z,100529.34
2018-02-09T03:30:16.453Z,100534.06
2018-02-09T03:31:22.180Z,100536.21
2018-02-09T03:32:28.704Z,100535.80
2018-02-09T03:33:34.427Z,100536.69
2018-02-09T03:34:40.170Z,100529.41
2018-02-09T03:35:45.891Z,100525.55
2018-02-09T03:36:51.615Z,100526.42
2018-02-09T03:37:57.352Z,100531.59
2018-02-09T03:39:03.591Z,100525.58
2018-02-09T03:40:10.117Z,100518.73
2018-02-09T03:41:15.835Z,100523.90
2018-02-09T03:42:21.560Z,100524.77
2018-02-09T03:43:27.271Z,100520.90
2018-02-09T03:44:33.769Z,100517.06
2018-02-09T03:45:39.512Z,100516.19
2018-02-09T03:46:45.249Z,100513.22
2018-02-09T03:47:50.959Z,100508.92
2018-02-09T03:48:57.460Z,100515.81
2018-02-09T03:50:03.192Z,100515.36
2018-02-09T03:51:08.927Z,100517.09
2018-02-09T03:52:14.644Z,100508.95
2018-02-09T03:53:21.141Z,100511.09
2018-02-09T03:54:26.995Z,100511.53
2018-02-09T03:55:32.712Z,100514.52
2018-02-09T03:56:38.461Z,100509.84
2018-02-09T03:57:44.176Z,100511.11
2018-02-09T03:58:50.660Z,100506.41
2018-02-09T03:59:56.376Z,100514.98
2018-02-09T04:01:02.863Z,100516.68
2018-02-09T04:02:08.605Z,100516.70
2018-02-09T04:03:14.335Z,100512.81
2018-02-09T04:04:20.064Z,100521.39
2018-02-09T04:05:25.795Z,100520.53
2018-02-09T04:06:32.042Z,100523.97
2018-02-09T04:07:38.548Z,100518.83
2018-02-09T04:08:44.316Z,100518.37
2018-02-09T04:09:50.024Z,100515.37
2018-02-09T04:10:55.753Z,100521.82
2018-02-09T04:12:01.467Z,100518.39
2018-02-09T04:13:07.971Z,100520.96
2018-02-09T04:14:14.012Z,100516.24
2018-02-09T04:15:19.794Z,100517.12
2018-02-09T04:16:25.506Z,100522.69
2018-02-09T04:17:31.229Z,100520.56
2018-02-09T04:18:36.976Z,100514.11
2018-02-09T04:19:42.704Z,100517.14
2018-02-09T04:20:48.235Z,100509.84
2018-02-09T04:21:53.956Z,100515.86
2018-02-09T04:23:00.451Z,100510.70
2018-02-09T04:24:06.207Z,100502.14
2018-02-09T04:25:11.924Z,100512.00
2018-02-09T04:26:17.649Z,100509.84
2018-02-09T04:27:24.144Z,100511.56
2018-02-09T04:28:29.858Z,100507.30
2018-02-09T04:29:35.859Z,100507.30
2018-02-09T04:30:42.656Z,100506.84
2018-02-09T04:31:49.442Z,100500.44
2018-02-09T04:32:55.729Z,100500.00
2018-02-09T04:34:01.807Z,100498.71
2018-02-09T04:35:08.128Z,100497.87
2018-02-09T04:36:14.696Z,100494.45
2018-02-09T04:37:20.729Z,100494.87
2018-02-09T04:38:28.117Z,100497.42
2018-02-09T04:39:35.856Z,100494.02
2018-02-09T04:40:42.716Z,100494.44
2018-02-09T04:41:48.601Z,100492.28
2018-02-09T04:42:55.261Z,100494.86
2018-02-09T04:44:01.116Z,100493.59
2018-02-09T04:45:07.253Z,100494.87
2018-02-09T04:46:14.214Z,100488.88
2018-02-09T04:47:20.082Z,100492.73
2018-02-09T04:48:26.049Z,100491.44
2018-02-09T04:49:32.741Z,100493.17
2018-02-09T04:50:39.256Z,100491.88
2018-02-09T04:51:45.239Z,100488.02
2018-02-09T04:52:51.981Z,100487.16
2018-02-09T04:53:58.779Z,100486.73
2018-02-09T04:55:04.950Z,100486.72
2018-02-09T04:56:10.975Z,100487.16
2018-02-09T04:57:16.858Z,100482.03
2018-02-09T04:58:22.821Z,100484.60
2018-02-09T04:59:28.843Z,100477.72
2018-02-09T05:00:35.717Z,100482.47
2018-02-09T05:01:42.428Z,100481.17
2018-02-09T05:02:49.117Z,100479.03
2018-02-09T05:03:55.348Z,100479.89
2018-02-09T05:05:02.175Z,100481.16
2018-02-09T05:06:08.691Z,100474.76
2018-02-09T05:07:14.752Z,100474.31
2018-02-09T05:08:20.669Z,100475.59
2018-02-09T05:09:27.421Z,100476.88
2018-02-09T05:10:34.414Z,100474.31
2018-02-09T05:11:41.726Z,100473.02
2018-02-09T05:12:47.831Z,100473.02
2018-02-09T05:13:54.557Z,100474.30
2018-02-09T05:15:01.396Z,100475.19
2018-02-09T05:16:07.555Z,100477.75
2018-02-09T05:17:14.462Z,100476.44
2018-02-09T05:18:20.180Z,100483.31
2018-02-09T05:19:26.184Z,100478.16
2018-02-09T05:20:32.169Z,100481.59
2018-02-09T05:21:38.210Z,100483.31
2018-02-09T05:22:44.194Z,100476.47
2018-02-09T05:23:50.317Z,100480.75
2018-02-09T05:24:56.280Z,100476.88
2018-02-09T05:26:02.177Z,100476.44
2018-02-09T05:27:07.964Z,100476.01
2018-02-09T05:28:13.882Z,100476.89
2018-02-09T05:29:19.946Z,100476.46
2018-02-09T05:30:25.993Z,100481.17
2018-02-09T05:31:31.941Z,100475.16
2018-02-09T05:32:37.975Z,100479.02
2018-02-09T05:33:44.684Z,100478.16
2018-02-09T05:34:50.425Z,100476.88
2018-02-09T05:35:56.541Z,100473.88
2018-02-09T05:37:02.488Z,100474.73
2018-02-09T05:38:08.300Z,100473.45
2018-02-09T05:39:14.442Z,100475.16
2018-02-09T05:40:20.301Z,100474.31
2018-02-09T05:41:27.017Z,100470.89
2018-02-09T05:42:34.560Z,100473.02
2018-02-09T05:43:40.696Z,100472.14
2018-02-09T05:44:47.129Z,100472.14
2018-02-09T05:45:53.132Z,100475.58
2018-02-09T05:46:59.096Z,100470.45
2018-02-09T05:48:04.863Z,100472.17
2018-02-09T05:49:10.774Z,100469.58
2018-02-09T05:50:16.797Z,100471.28
2018-02-09T05:51:22.736Z,100466.59
2018-02-09T05:52:29.486Z,100465.30
2018-02-09T05:53:35.537Z,100458.02
2018-02-09T05:54:41.454Z,100464.88
2018-02-09T05:55:47.307Z,100463.59
2018-02-09T05:56:53.307Z,100463.16
2018-02-09T05:57:59.967Z,100461.88
2018-02-09T05:59:06.230Z,100459.30
2018-02-09T06:00:11.974Z,100460.15
2018-02-09T06:01:17.702Z,100457.57
2018-02-09T06:02:23.459Z,100451.59
2018-02-09T06:03:29.216Z,100455.43
2018-02-09T06:04:34.927Z,100453.72
2018-02-09T06:05:40.671Z,100451.16
2018-02-09T06:06:46.605Z,100448.59
2018-02-09T06:07:52.007Z,100449.45
2018-02-09T06:08:58.104Z,100453.29
2018-02-09T06:10:03.821Z,100452.00
2018-02-09T06:11:09.548Z,100452.02
2018-02-09T06:12:16.043Z,100455.86
2018-02-09T06:13:21.778Z,100450.71
2018-02-09T06:14:27.549Z,100445.58
2018-02-09T06:15:33.276Z,100449.45
2018-02-09T06:16:39.004Z,100452.01
2018-02-09T06:17:44.723Z,100452.88
2018-02-09T06:18:51.230Z,100449.86
2018-02-09T06:19:57.164Z,100451.15
2018-02-09T06:21:02.888Z,100449.86
2018-02-09T06:22:08.612Z,100444.30
2018-02-09T06:23:14.356Z,100446.45
2018-02-09T06:24:20.080Z,100449.03
2018-02-09T06:25:26.600Z,100451.14
2018-02-09T06:26:32.386Z,100446.88
2018-02-09T06:27:38.880Z,100448.16
2018-02-09T06:28:44.610Z,100448.58
2018-02-09T06:29:50.367Z,100448.16
2018-02-09T06:30:56.113Z,100446.86
2018-02-09T06:32:01.836Z,100452.88
2018-02-09T06:33:07.773Z,100446.44
2018-02-09T06:34:13.487Z,100451.17
2018-02-09T06:35:20.023Z,100458.02
2018-02-09T06:36:25.775Z,100450.75
2018-02-09T06:37:31.515Z,100454.61
2018-02-09T06:38:38.020Z,100452.02
2018-02-09T06:39:43.731Z,100451.16
2018-02-09T06:40:50.232Z,100446.87
2018-02-09T06:41:55.987Z,100450.30
2018-02-09T06:43:01.711Z,100449.46
2018-02-09T06:44:07.339Z,100449.47
2018-02-09T06:45:13.051Z,100448.17
2018-02-09T06:46:19.535Z,100450.33
2018-02-09T06:47:26.099Z,100454.61
2018-02-09T06:48:31.817Z,100452.47
2018-02-09T06:49:38.307Z,100446.89
2018-02-09T06:50:44.039Z,100449.46
2018-02-09T06:51:49.760Z,100451.62
2018-02-09T06:52:56.282Z,100450.33
2018-02-09T06:54:02.009Z,100454.61
2018-02-09T06:55:07.736Z,100449.91
2018-02-09T06:56:13.465Z,100451.59
2018-02-09T06:57:19.213Z,100451.16
2018-02-09T06:58:24.967Z,100448.18
2018-02-09T06:59:30.691Z,100454.59
2018-02-09T07:00:37.627Z,100448.17
2018-02-09T07:01:44.116Z,100449.45
2018-02-09T07:02:50.108Z,100443.45
2018-02-09T07:03:56.002Z,100448.16
2018-02-09T07:05:01.974Z,100452.89
2018-02-09T07:06:07.843Z,100449.88
2018-02-09T07:07:13.561Z,100452.45
2018-02-09T07:08:19.295Z,100447.31
2018-02-09T07:09:25.082Z,100453.31
2018-02-09T07:10:30.824Z,100450.31
2018-02-09T07:11:37.724Z,100450.30
2018-02-09T07:13:47.154Z,100449.88
2018-02-09T07:14:53.776Z,100463.14
2018-02-09T07:15:59.664Z,100452.86
2018-02-09T07:17:05.375Z,100462.27
2018-02-09T07:18:12.106Z,100461.44
2018-02-09T07:19:17.847Z,100457.58
2018-02-09T07:20:23.600Z,100460.56
2018-02-09T07:21:30.848Z,100457.59
2018-02-09T07:22:36.620Z,100457.58
2018-02-09T07:23:42.340Z,100465.31
2018-02-09T07:24:48.069Z,100459.30
2018-02-09T07:25:53.879Z,100462.75
2018-02-09T07:26:59.613Z,100458.44
2018-02-09T07:28:06.103Z,100457.59
2018-02-09T07:29:11.833Z,100456.33
2018-02-09T07:30:17.569Z,100454.61
2018-02-09T07:31:24.101Z,100454.17
2018-02-09T07:32:30.798Z,100456.32
2018-02-09T07:33:37.486Z,100455.89
2018-02-09T07:34:43.290Z,100453.75
2018-02-09T07:35:49.909Z,100446.87
2018-02-09T07:36:56.468Z,100449.02
2018-02-09T07:38:02.347Z,100455.88
2018-02-09T07:39:08.356Z,100446.87
2018-02-09T07:40:14.843Z,100452.44
2018-02-09T07:41:21.360Z,100448.13
2018-02-09T07:42:27.123Z,100448.56
2018-02-09T07:43:32.919Z,100445.14
2018-02-09T07:44:38.636Z,100443.84
2018-02-09T07:45:45.136Z,100442.12
2018-02-09T07:46:50.872Z,100444.27
2018-02-09T07:47:56.624Z,100443.39
2018-02-09T07:49:02.365Z,100443.80
2018-02-09T07:50:08.083Z,100440.37
2018-02-09T07:51:13.809Z,100442.97
2018-02-09T07:52:19.288Z,100441.23
2018-02-09T07:53:25.071Z,100446.39
2018-02-09T07:54:31.464Z,100443.80
2018-02-09T07:55:37.200Z,100442.49
2018-02-09T07:56:42.942Z,100441.65
2018-02-09T07:57:48.492Z,100440.36
2018-02-09T07:58:54.260Z,100443.34
2018-02-09T08:00:00.788Z,100440.77
2018-02-09T08:01:06.716Z,100436.90
2018-02-09T08:02:12.462Z,100433.01
2018-02-09T08:03:18.203Z,100432.56
2018-02-09T08:04:23.948Z,100436.86
2018-02-09T08:05:29.680Z,100436.00
2018-02-09T08:06:35.415Z,100430.83
2018-02-09T08:07:42.674Z,100436.39
2018-02-09T08:08:49.176Z,100435.53
2018-02-09T08:09:54.916Z,100427.35
2018-02-09T08:11:00.714Z,100428.21
2018-02-09T08:12:07.307Z,100430.78
2018-02-09T08:13:13.060Z,100429.92
2018-02-09T08:14:18.803Z,100432.92
2018-02-09T08:15:24.885Z,100436.80
2018-02-09T08:16:30.601Z,100435.05
2018-02-09T08:17:36.318Z,100429.50
2018-02-09T08:18:42.060Z,100426.45
2018-02-09T08:19:47.800Z,100431.14
2018-02-09T08:20:53.549Z,100425.99
2018-02-09T08:21:59.156Z,100425.97
2018-02-09T08:23:05.645Z,100426.83
2018-02-09T08:24:11.359Z,100427.26
2018-02-09T08:25:17.852Z,100425.08
2018-02-09T08:26:23.615Z,100419.91
2018-02-09T08:27:29.352Z,100426.31
2018-02-09T08:28:35.067Z,100421.13
2018-02-09T08:29:40.776Z,100423.24
2018-02-09T08:30:47.265Z,100419.77
2018-02-09T08:31:53.008Z,100420.13
2018-02-09T08:32:58.720Z,100425.19
2018-02-09T08:34:05.228Z,100418.62
2018-02-09T08:35:10.949Z,100418.92
2018-02-09T08:36:16.954Z,100413.84
2018-02-09T08:37:22.690Z,100410.56
2018-02-09T08:38:28.401Z,100412.92
2018-02-09T08:39:34.164Z,100408.41
2018-02-09T08:40:40.095Z,100409.45
2018-02-09T08:41:45.824Z,100413.06
2018-02-09T08:42:51.296Z,100412.14
2018-02-09T08:43:57.058Z,100411.78
2018-02-09T08:45:02.787Z,100408.90
2018-02-09T08:46:08.508Z,100405.56
2018-02-09T08:47:14.232Z,100405.81
2018-02-09T08:48:19.983Z,100402.58
2018-02-09T08:49:25.696Z,100400.97
2018-02-09T08:50:32.216Z,100404.41
2018-02-09T08:51:37.932Z,100403.65
2018-02-09T08:52:43.639Z,100398.98
2018-02-09T08:53:49.400Z,100401.90
2018-02-09T08:54:55.132Z,100398.75
2018-02-09T08:56:00.844Z,100399.70
2018-02-09T08:57:07.131Z,100400.76
2018-02-09T08:58:12.858Z,100399.65
2018-02-09T08:59:19.561Z,100391.09
2018-02-09T09:00:25.575Z,100388.72
2018-02-09T09:01:31.625Z,100390.16
2018-02-09T09:02:37.372Z,100387.31
2018-02-09T09:03:43.084Z,100390.09
2018-02-09T09:04:49.592Z,100388.96
2018-02-09T09:05:55.303Z,100387.04
2018-02-09T09:07:01.012Z,100386.92
2018-02-09T09:08:07.501Z,100386.86
2018-02-09T09:09:13.451Z,100387.62
2018-02-09T09:10:19.274Z,100386.44
2018-02-09T09:11:25.848Z,100394.89
2018-02-09T09:12:31.999Z,100391.95
2018-02-09T09:13:37.721Z,100392.30
2018-02-09T09:14:44.285Z,100390.69
2018-02-09T09:15:50.960Z,100395.92
2018-02-09T09:16:56.768Z,100394.16
2018-02-09T09:18:03.273Z,100387.05
2018-02-09T09:19:08.979Z,100390.96
2018-02-09T09:20:15.487Z,100392.95
2018-02-09T09:21:21.223Z,100387.02
2018-02-09T09:22:26.736Z,100388.08
2018-02-09T09:23:32.482Z,100387.96
2018-02-09T09:24:37.949Z,100391.01
2018-02-09T09:25:43.747Z,100386.62
2018-02-09T09:26:50.287Z,100387.73
2018-02-09T09:27:55.992Z,100386.00
2018-02-09T09:29:01.714Z,100382.16
2018-02-09T09:30:07.431Z,100382.23
2018-02-09T09:31:13.901Z,100387.13
2018-02-09T09:32:19.636Z,100386.03
2018-02-09T09:33:26.133Z,100393.94
2018-02-09T09:34:31.841Z,100387.30
2018-02-09T09:35:37.552Z,100388.88
2018-02-09T09:36:43.260Z,100387.30
2018-02-09T09:37:49.029Z,100393.64
2018-02-09T09:38:55.507Z,100387.50
2018-02-09T09:40:01.978Z,100382.72
2018-02-09T09:41:07.686Z,100381.01
2018-02-09T09:42:13.410Z,100382.01
2018-02-09T09:43:19.149Z,100377.46
2018-02-09T09:44:24.886Z,100375.95
2018-02-09T09:45:30.593Z,100377.38
2018-02-09T09:46:36.315Z,100380.64
2018-02-09T09:47:42.790Z,100373.45
2018-02-09T09:48:48.528Z,100377.36
2018-02-09T09:49:54.035Z,100373.02
2018-02-09T09:51:00.516Z,100368.46
2018-02-09T09:52:06.261Z,100373.83
2018-02-09T09:53:11.961Z,100373.33
2018-02-09T09:54:17.696Z,100372.20
2018-02-09T09:55:24.932Z,100372.36
2018-02-09T09:56:30.658Z,100378.91
2018-02-09T09:57:36.459Z,100372.13
2018-02-09T09:58:42.954Z,100377.20
2018-02-09T09:59:49.447Z,100375.11
2018-02-09T10:00:55.169Z,100379.25
2018-02-09T10:02:00.876Z,100381.05
2018-02-09T10:03:07.368Z,100374.34
2018-02-09T10:04:13.095Z,100380.75
2018-02-09T10:05:18.832Z,100379.39
2018-02-09T10:06:24.555Z,100378.09
2018-02-09T10:07:31.044Z,100381.09
2018-02-09T10:08:36.752Z,100377.95
2018-02-09T10:09:43.245Z,100379.70
2018-02-09T10:10:48.989Z,100384.99
2018-02-09T10:11:54.754Z,100382.63
2018-02-09T10:13:00.460Z,100384.96
2018-02-09T10:14:06.184Z,100384.19
2018-02-09T10:15:12.656Z,100382.73
2018-02-09T10:16:18.402Z,100383.97
2018-02-09T10:17:24.151Z,100384.86
2018-02-09T10:18:29.850Z,100381.62
2018-02-09T10:19:36.332Z,100382.70
2018-02-09T10:20:42.056Z,100387.31
2018-02-09T10:21:48.552Z,100391.15
2018-02-09T10:22:54.281Z,100386.41
2018-02-09T10:24:02.667Z,100386.06
2018-02-09T10:25:08.401Z,100378.88
2018-02-09T10:26:14.880Z,100378.27
2018-02-09T10:27:20.719Z,100381.70
2018-02-09T10:28:26.425Z,100384.00
2018-02-09T10:29:32.140Z,100385.79
2018-02-09T10:30:37.876Z,100385.48
2018-02-09T10:31:43.686Z,100388.06
2018-02-09T10:32:49.440Z,100384.69
2018-02-09T10:33:55.147Z,100386.14
2018-02-09T10:35:01.629Z,100378.67
2018-02-09T10:36:07.345Z,100378.22
2018-02-09T10:37:13.826Z,100378.80
2018-02-09T10:38:22.193Z,100377.47
2018-02-09T10:39:27.891Z,100377.50
2018-02-09T10:40:33.704Z,100378.56
2018-02-09T10:41:40.180Z,100373.39
2018-02-09T10:42:45.912Z,100370.90
2018-02-09T10:43:51.640Z,100366.81
2018-02-09T10:44:58.159Z,100364.86
2018-02-09T10:46:03.892Z,100366.86
2018-02-09T10:47:09.609Z,100362.70
2018-02-09T10:48:15.323Z,100364.02
2018-02-09T10:49:21.085Z,100363.28
2018-02-09T10:50:26.841Z,100358.52
2018-02-09T10:51:32.659Z,100363.44
2018-02-09T10:52:38.371Z,100361.98
2018-02-09T10:53:44.865Z,100358.55
2018-02-09T10:54:50.605Z,100358.66
2018-02-09T10:55:56.332Z,100359.61
2018-02-09T10:57:02.044Z,100362.95
2018-02-09T10:58:08.533Z,100358.17
2018-02-09T10:59:14.274Z,100363.20
2018-02-09T11:01:58.946Z,100355.87
2018-02-09T11:03:04.667Z,100349.32
2018-02-09T11:04:11.162Z,100349.41
2018-02-09T11:05:16.892Z,100350.73
2018-02-09T11:06:22.633Z,100350.42
2018-02-09T11:07:28.341Z,100347.70
2018-02-09T11:08:34.819Z,100350.60
2018-02-09T11:09:40.353Z,100349.50
2018-02-09T11:10:50.420Z,100343.78
2018-02-09T11:12:01.892Z,100349.69
2018-02-09T11:13:13.079Z,100352.44
2018-02-09T11:14:18.784Z,100347.62
2018-02-09T11:15:24.501Z,100343.73
2018-02-09T11:16:30.967Z,100346.69
2018-02-09T11:17:37.527Z,100348.28
2018-02-09T11:18:44.067Z,100346.23
2018-02-09T11:19:50.569Z,100341.81
2018-02-09T11:20:56.539Z,100334.36
2018-02-09T11:22:02.305Z,100337.41
2018-02-09T11:23:08.153Z,100340.78
2018-02-09T11:24:15.366Z,100337.62
2018-02-09T11:25:21.117Z,100340.25
2018-02-09T11:26:26.890Z,100338.80
2018-02-09T11:27:32.864Z,100334.11
2018-02-09T11:28:38.740Z,100339.81
2018-02-09T11:29:45.230Z,100332.59
2018-02-09T11:30:51.228Z,100335.22
2018-02-09T11:31:57.716Z,100328.78
2018-02-09T11:33:03.452Z,100332.55
2018-02-09T11:34:09.188Z,100327.95
2018-02-09T11:35:15.410Z,100324.97
2018-02-09T11:36:21.116Z,100323.62
2018-02-09T11:37:26.828Z,100321.31
2018-02-09T11:38:32.552Z,100321.23
2018-02-09T11:39:38.318Z,100320.58
2018-02-09T11:40:44.041Z,100324.78
2018-02-09T11:41:49.756Z,100322.20
2018-02-09T11:42:56.224Z,100323.62
2018-02-09T11:44:02.730Z,100327.08
2018-02-09T11:45:08.476Z,100319.79
2018-02-09T11:46:14.191Z,100320.16
2018-02-09T11:47:19.893Z,100313.23
2018-02-09T11:48:26.380Z,100315.27
2018-02-09T11:49:32.122Z,100321.02
2018-02-09T11:50:38.813Z,100317.30
2018-02-09T11:51:45.289Z,100320.14
2018-02-09T11:52:51.002Z,100319.31
2018-02-09T11:53:56.736Z,100315.43
2018-02-09T11:55:02.445Z,100314.38
2018-02-09T11:56:08.963Z,100321.62
2018-02-09T11:57:14.681Z,100313.34
2018-02-09T11:58:20.394Z,100319.64
2018-02-09T11:59:26.867Z,100325.69
2018-02-09T12:00:32.616Z,100318.33
2018-02-09T12:01:38.370Z,100320.50
2018-02-09T12:02:44.238Z,100315.09
2018-02-09T12:03:49.944Z,100317.75
2018-02-09T12:04:55.662Z,100316.57
2018-02-09T12:06:02.147Z,100315.30
2018-02-09T12:07:07.908Z,100317.30
2018-02-09T12:08:13.646Z,100315.88
2018-02-09T12:09:19.357Z,100318.28
2018-02-09T12:10:25.117Z,100313.70
2018-02-09T12:11:30.866Z,100310.35
2018-02-09T12:12:36.608Z,100313.91
2018-02-09T12:13:42.328Z,100310.58
2018-02-09T12:14:48.032Z,100307.84
2018-02-09T12:15:54.517Z,100305.31
2018-02-09T12:17:00.294Z,100301.06
2018-02-09T12:18:06.028Z,100296.56
2018-02-09T12:19:11.799Z,100304.52
2018-02-09T12:20:17.517Z,100298.76
2018-02-09T12:21:23.232Z,100299.46
2018-02-09T12:22:28.941Z,100305.31
2018-02-09T12:23:35.460Z,100298.86
2018-02-09T12:24:41.176Z,100302.23
2018-02-09T12:25:47.212Z,100298.13
2018-02-09T12:26:52.940Z,100295.32
2018-02-09T12:27:58.656Z,100299.00
2018-02-09T12:29:04.389Z,100292.42
2018-02-09T12:30:09.832Z,100292.88
2018-02-09T12:31:15.610Z,100294.61
2018-02-09T12:32:21.325Z,100290.83
2018-02-09T12:33:27.798Z,100290.64
2018-02-09T12:34:33.543Z,100289.73
2018-02-09T12:35:39.148Z,100288.93